Time;durP1;ratioP1;P1;durP2;ratioP2;P2;SDS_P1;SDS_P2;PMS_P1;PMS_P2;Temp;Humidity;BMP_temperature;BMP_pressure;BME280_temperature;BME280_humidity;BME280_pressure;Samples;Min_cycle;Max_cycle;Signal;HPM_P1;HPM_P2
2023/08/22 00:00:17;;;;;;;11.25;2.88;;;;;;;16.51;100.00;101450.78;4983692;28;20047;-56
2023/08/22 00:02:43;;;;;;;10.98;2.97;;;;;;;16.41;100.00;101444.72;4983968;28;20051;-56
2023/08/22 00:05:11;;;;;;;12.70;3.58;;;;;;;16.48;100.00;101442.13;4983787;28;20054;-56
2023/08/22 00:07:39;;;;;;;10.52;2.60;;;;;;;16.47;100.00;101444.00;4983665;28;20113;-57
2023/08/22 00:10:07;;;;;;;7.60;2.67;;;;;;;16.46;100.00;101450.44;4983226;28;20051;-55
2023/08/22 00:12:37;;;;;;;17.85;2.80;;;;;;;16.24;100.00;101451.28;4983974;28;20089;-56
2023/08/22 00:15:08;;;;;;;7.97;3.05;;;;;;;16.25;100.00;101445.69;4983533;28;20051;-55
2023/08/22 00:17:36;;;;;;;15.75;3.00;;;;;;;16.26;100.00;101446.53;4983661;28;20081;-55
2023/08/22 00:20:08;;;;;;;17.20;2.90;;;;;;;16.25;100.00;101434.84;4983195;28;20074;-56
2023/08/22 00:22:35;;;;;;;14.05;2.70;;;;;;;16.27;100.00;101442.81;4982922;28;20051;-56
2023/08/22 00:25:04;;;;;;;13.35;2.55;;;;;;;16.30;100.00;101446.00;4983528;28;20105;-55
2023/08/22 00:27:31;;;;;;;12.77;2.67;;;;;;;16.37;100.00;101440.72;4983977;28;20467;-55
2023/08/22 00:29:57;;;;;;;14.77;3.13;;;;;;;16.34;100.00;101435.66;4984523;28;20046;-56
2023/08/22 00:32:24;;;;;;;11.48;2.50;;;;;;;16.32;100.00;101434.97;4983354;28;20593;-59
2023/08/22 00:34:51;;;;;;;11.05;2.33;;;;;;;16.30;100.00;101427.03;4984716;28;20051;-55
2023/08/22 00:37:18;;;;;;;13.82;2.60;;;;;;;16.28;100.00;101430.94;4983701;28;20089;-56
2023/08/22 00:39:45;;;;;;;10.25;2.58;;;;;;;16.27;100.00;101432.81;4984471;28;20054;-57
2023/08/22 00:42:12;;;;;;;9.98;2.15;;;;;;;16.18;100.00;101431.19;4983887;28;20144;-55
2023/08/22 00:44:38;;;;;;;13.70;2.65;;;;;;;16.25;100.00;101420.47;4983079;28;20050;-55
2023/08/22 00:47:05;;;;;;;11.88;2.22;;;;;;;16.21;100.00;101417.28;4983182;28;20523;-55
2023/08/22 00:49:32;;;;;;;7.97;2.58;;;;;;;16.17;100.00;101414.09;4983303;28;20078;-55
2023/08/22 00:52:01;;;;;;;9.25;2.70;;;;;;;16.06;100.00;101405.56;4983281;28;20047;-55
2023/08/22 00:54:28;;;;;;;9.48;2.53;;;;;;;16.17;100.00;101405.97;4984037;28;20055;-57
2023/08/22 00:56:56;;;;;;;12.35;2.83;;;;;;;16.16;100.00;101404.31;4983294;28;20059;-56
2023/08/22 00:59:26;;;;;;;9.00;2.30;;;;;;;16.14;100.00;101409.03;4983001;28;20134;-57
2023/08/22 01:01:54;;;;;;;10.60;2.30;;;;;;;16.09;100.00;101405.19;4984052;28;20065;-55
2023/08/22 01:04:21;;;;;;;13.55;2.17;;;;;;;16.02;100.00;101398.81;4983063;28;20098;-56
2023/08/22 01:07:13;;;;;;;8.73;2.42;;;;;;;16.05;100.00;101407.41;4984116;28;20097;-55
2023/08/22 01:09:48;;;;;;;10.00;2.67;;;;;;;15.95;100.00;101401.38;4983451;28;20043;-56
2023/08/22 01:12:39;;;;;;;11.35;2.25;;;;;;;15.99;100.00;101400.03;4982485;28;20126;-56
2023/08/22 01:15:40;;;;;;;10.30;2.03;;;;;;;16.06;100.00;101403.69;4981834;28;20045;-55
2023/08/22 01:18:11;;;;;;;13.35;2.50;;;;;;;15.97;100.00;101398.50;4932225;28;20062;-55
2023/08/22 01:20:37;;;;;;;9.07;2.58;;;;;;;15.97;100.00;101399.34;4981248;28;20043;-56
2023/08/22 01:23:04;;;;;;;9.95;2.28;;;;;;;15.95;100.00;101398.69;4982961;28;20043;-56
2023/08/22 01:25:30;;;;;;;12.95;2.88;;;;;;;16.00;100.00;101399.00;4983219;28;20059;-56
2023/08/22 01:28:20;;;;;;;7.68;2.42;;;;;;;15.95;100.00;101401.38;4982078;28;20109;-56
2023/08/22 01:30:56;;;;;;;9.93;2.33;;;;;;;15.95;100.00;101390.56;4982655;28;20046;-56
2023/08/22 01:33:30;;;;;;;12.57;2.58;;;;;;;15.88;100.00;101397.72;4982843;28;20043;-56
2023/08/22 01:35:57;;;;;;;8.23;2.50;;;;;;;16.04;100.00;101394.91;4987326;28;20053;-55
2023/08/22 01:38:27;;;;;;;9.85;2.42;;;;;;;15.96;100.00;101389.56;4984901;28;20082;-56
2023/08/22 01:40:56;;;;;;;8.43;2.42;;;;;;;16.02;100.00;101390.69;4986503;28;20058;-56
2023/08/22 01:43:23;;;;;;;8.80;2.47;;;;;;;15.89;100.00;101391.31;4983442;28;20046;-56
2023/08/22 01:45:49;;;;;;;17.88;2.83;;;;;;;15.94;100.00;101389.72;4985244;28;20043;-57
2023/08/22 01:48:17;;;;;;;9.75;2.55;;;;;;;15.95;100.00;101393.25;4983730;28;20050;-57
2023/08/22 01:50:43;;;;;;;16.35;3.65;;;;;;;15.95;100.00;101398.69;4983689;28;20043;-57
2023/08/22 01:53:10;;;;;;;15.45;3.00;;;;;;;15.93;100.00;101395.31;4984545;28;20050;-55
2023/08/22 01:55:39;;;;;;;11.45;3.03;;;;;;;16.00;100.00;101395.44;4985112;28;20046;-56
2023/08/22 01:58:10;;;;;;;8.35;2.30;;;;;;;15.87;100.00;101391.47;4985265;28;20055;-56
2023/08/22 02:00:38;;;;;;;7.40;2.30;;;;;;;15.85;100.00;101387.28;4985763;28;20051;-54
2023/08/22 02:03:05;;;;;;;11.95;2.15;;;;;;;15.95;100.00;101377.03;4985440;28;20170;-54
2023/08/22 02:05:32;;;;;;;8.52;2.30;;;;;;;15.92;100.00;101375.56;4983360;28;20066;-55
2023/08/22 02:08:00;;;;;;;8.75;2.30;;;;;;;15.77;100.00;101381.88;4985508;28;20047;-55
2023/08/22 02:10:27;;;;;;;8.30;1.80;;;;;;;15.71;100.00;101375.34;4985359;28;20078;-56
2023/08/22 02:12:53;;;;;;;7.93;2.38;;;;;;;15.78;100.00;101375.44;4985494;28;20050;-56
2023/08/22 02:15:20;;;;;;;12.45;2.45;;;;;;;15.88;100.00;101367.94;4983469;28;20078;-56
2023/08/22 02:17:48;;;;;;;8.98;2.22;;;;;;;15.87;100.00;101364.41;4983921;28;20066;-56
2023/08/22 02:20:15;;;;;;;8.07;1.95;;;;;;;15.85;100.00;101376.44;4984908;28;20042;-57
2023/08/22 02:22:41;;;;;;;12.88;3.03;;;;;;;15.77;100.00;101371.91;4986128;28;20051;-56
2023/08/22 02:25:08;;;;;;;13.60;2.25;;;;;;;15.70;100.00;101371.78;4986297;28;20058;-56
2023/08/22 02:27:37;;;;;;;7.80;2.42;;;;;;;15.75;100.00;101362.31;4984403;28;20525;-56
2023/08/22 02:30:10;;;;;;;7.03;2.00;;;;;;;15.81;100.00;101361.56;4986849;28;20042;-57
2023/08/22 02:32:36;;;;;;;16.48;2.83;;;;;;;15.89;100.00;101367.78;4983702;28;20736;-55
2023/08/22 02:35:03;;;;;;;13.15;2.30;;;;;;;15.79;100.00;101360.94;4985006;28;20051;-56
2023/08/22 02:37:30;;;;;;;9.00;2.53;;;;;;;15.61;100.00;101355.78;4985358;28;20055;-56
2023/08/22 02:39:56;;;;;;;12.85;2.35;;;;;;;15.46;100.00;101345.69;4985805;28;20058;-55
2023/08/22 02:42:23;;;;;;;10.50;2.67;;;;;;;15.49;100.00;101352.59;4985890;28;20064;-55
2023/08/22 02:44:49;;;;;;;14.07;2.70;;;;;;;15.51;100.00;101333.50;4985414;28;20459;-56
2023/08/22 02:47:16;;;;;;;8.32;2.50;;;;;;;15.45;100.00;101341.31;4985645;28;20066;-54
2023/08/22 02:49:43;;;;;;;9.77;2.67;;;;;;;15.49;100.00;101328.28;4985414;28;20139;-55
2023/08/22 02:52:11;;;;;;;8.65;2.00;;;;;;;15.42;100.00;101330.84;4984599;28;20051;-55
2023/08/22 02:54:37;;;;;;;7.15;2.55;;;;;;;15.44;100.00;101325.28;4985742;28;20047;-56
2023/08/22 02:57:04;;;;;;;13.88;2.85;;;;;;;15.46;100.00;101332.16;4983529;28;20102;-56
2023/08/22 02:59:30;;;;;;;14.15;3.35;;;;;;;15.45;100.00;101326.94;4983617;28;20046;-56
2023/08/22 03:01:57;;;;;;;9.60;2.47;;;;;;;15.41;100.00;101323.75;4984722;28;20074;-55
2023/08/22 03:04:23;;;;;;;10.15;2.22;;;;;;;15.36;100.00;101331.56;4984405;28;20489;-56
2023/08/22 03:06:51;;;;;;;8.43;2.42;;;;;;;15.44;100.00;101322.56;4981859;28;20058;-57
2023/08/22 03:09:17;;;;;;;7.93;2.20;;;;;;;15.42;100.00;101330.00;4983726;28;20051;-56
2023/08/22 03:11:44;;;;;;;10.10;2.38;;;;;;;15.36;100.00;101322.59;4983627;28;20074;-56
2023/08/22 03:14:10;;;;;;;10.52;2.78;;;;;;;15.34;100.00;101321.94;4984401;28;20066;-57
2023/08/22 03:16:37;;;;;;;9.02;2.30;;;;;;;15.44;100.00;101327.97;4983731;28;20107;-56
2023/08/22 03:19:03;;;;;;;8.43;2.92;;;;;;;15.46;100.00;101325.91;4985036;28;20487;-56
2023/08/22 03:21:30;;;;;;;8.10;2.00;;;;;;;15.37;100.00;101313.47;4983824;28;20050;-56
2023/08/22 03:23:56;;;;;;;10.07;2.45;;;;;;;15.41;100.00;101317.50;4984504;28;20093;-56
2023/08/22 03:26:23;;;;;;;9.85;2.90;;;;;;;15.45;100.00;101314.25;4983380;28;20487;-56
2023/08/22 03:28:49;;;;;;;8.35;2.30;;;;;;;15.59;100.00;101315.34;4983870;28;20133;-57
2023/08/22 03:31:16;;;;;;;10.68;2.53;;;;;;;15.58;100.00;101323.66;4984464;28;20086;-57
2023/08/22 03:33:43;;;;;;;9.98;2.58;;;;;;;15.66;100.00;101323.63;4965774;28;20051;-56
2023/08/22 03:36:10;;;;;;;9.07;2.20;;;;;;;15.73;100.00;101327.31;4982603;28;20046;-56
2023/08/22 03:38:37;;;;;;;9.65;2.50;;;;;;;15.66;100.00;101329.88;4982146;28;20078;-57
2023/08/22 03:41:04;;;;;;;7.57;2.30;;;;;;;15.52;100.00;101324.38;4983866;28;20074;-56
2023/08/22 03:43:30;;;;;;;11.15;2.72;;;;;;;15.59;100.00;101337.00;4981547;28;20050;-56
2023/08/22 03:45:57;;;;;;;11.05;2.45;;;;;;;15.60;100.00;101332.44;4984447;28;20051;-56
2023/08/22 03:48:23;;;;;;;9.95;2.25;;;;;;;15.49;100.00;101315.59;4982951;28;20133;-56
2023/08/22 03:50:50;;;;;;;12.13;2.42;;;;;;;15.57;100.00;101312.00;4984707;28;20047;-57
2023/08/22 03:53:16;;;;;;;6.68;2.47;;;;;;;15.43;100.00;101316.31;4982715;28;20073;-59
2023/08/22 03:55:44;;;;;;;10.38;2.60;;;;;;;15.49;100.00;101314.75;4983007;28;20042;-56
2023/08/22 03:58:11;;;;;;;6.32;2.13;;;;;;;15.42;100.00;101306.50;4981990;28;20077;-57
2023/08/22 04:00:38;;;;;;;14.85;2.50;;;;;;;15.53;100.00;101309.81;4983599;28;20046;-56
2023/08/22 04:03:05;;;;;;;10.43;2.95;;;;;;;15.48;100.00;101299.56;4982245;28;20043;-56
2023/08/22 04:05:31;;;;;;;11.88;2.72;;;;;;;15.48;100.00;101308.50;4982615;28;20050;-56
2023/08/22 04:07:58;;;;;;;12.57;2.97;;;;;;;15.34;100.00;101309.25;4983792;28;20043;-56
2023/08/22 04:10:25;;;;;;;13.23;2.92;;;;;;;15.33;100.00;101304.00;4985317;28;20050;-56
2023/08/22 04:12:51;;;;;;;8.95;2.33;;;;;;;15.32;100.00;101299.63;4984070;28;20074;-57
2023/08/22 04:15:19;;;;;;;10.85;3.45;;;;;;;15.36;100.00;101292.84;4983887;28;20050;-57
2023/08/22 04:17:45;;;;;;;9.57;2.70;;;;;;;15.58;100.00;101294.75;4983786;28;20050;-57
2023/08/22 04:20:17;;;;;;;12.27;2.42;;;;;;;15.47;100.00;101292.47;4981704;28;20046;-60
2023/08/22 04:22:43;;;;;;;7.78;2.55;;;;;;;15.46;100.00;101294.31;4983879;28;20043;-56
2023/08/22 04:25:10;;;;;;;11.30;2.30;;;;;;;15.49;100.00;101290.41;4981097;28;20059;-57
2023/08/22 04:27:38;;;;;;;10.77;2.25;;;;;;;15.67;100.00;101293.72;4984431;28;20413;-56
2023/08/22 04:30:06;;;;;;;6.72;2.13;;;;;;;15.67;100.00;101299.13;4983925;28;20047;-56
2023/08/22 04:32:33;;;;;;;12.77;2.72;;;;;;;15.84;100.00;101307.09;4981797;28;20054;-56
2023/08/22 04:35:00;;;;;;;9.82;2.53;;;;;;;15.80;100.00;101308.50;4983644;28;20053;-56
2023/08/22 04:37:30;;;;;;;8.57;1.90;;;;;;;15.88;100.00;101305.72;4983272;28;20047;-56
2023/08/22 04:39:56;;;;;;;11.55;2.60;;;;;;;15.84;100.00;101305.22;4981758;28;20078;-56
2023/08/22 04:42:23;;;;;;;12.77;2.63;;;;;;;15.89;100.00;101304.72;4980687;28;20047;-57
2023/08/22 04:44:50;;;;;;;14.85;3.00;;;;;;;15.80;100.00;101300.38;4980767;28;20051;-57
2023/08/22 04:47:17;;;;;;;9.15;2.45;;;;;;;15.88;100.00;101297.59;4982208;28;20074;-60
2023/08/22 04:49:43;;;;;;;10.45;2.70;;;;;;;15.82;100.00;101293.78;4982830;28;20051;-56
2023/08/22 04:52:10;;;;;;;15.45;3.28;;;;;;;15.82;100.00;101284.81;4983012;28;20105;-56
2023/08/22 04:54:37;;;;;;;9.23;2.70;;;;;;;15.81;100.00;101296.63;4981819;28;20059;-56
2023/08/22 04:57:04;;;;;;;16.08;3.03;;;;;;;15.71;100.00;101286.94;4980731;28;20050;-56
2023/08/22 04:59:30;;;;;;;8.52;3.00;;;;;;;15.65;100.00;101300.31;4981818;28;20050;-56
2023/08/22 05:01:57;;;;;;;8.18;2.15;;;;;;;15.64;100.00;101293.22;4980191;28;20046;-56
2023/08/22 05:04:23;;;;;;;9.65;2.38;;;;;;;15.55;100.00;101295.09;4980387;28;20111;-55
2023/08/22 05:06:50;;;;;;;13.18;2.50;;;;;;;15.58;100.00;101285.81;4980426;28;20082;-60
2023/08/22 05:09:16;;;;;;;19.42;2.40;;;;;;;15.60;100.00;101281.03;4981527;28;20042;-57
2023/08/22 05:11:44;;;;;;;10.48;2.50;;;;;;;15.65;100.00;101282.22;4984268;28;20475;-56
2023/08/22 05:14:11;;;;;;;9.88;2.35;;;;;;;15.62;100.00;101279.84;4984040;28;20050;-56
2023/08/22 05:16:38;;;;;;;7.05;2.05;;;;;;;15.63;100.00;101280.72;4980152;28;20063;-56
2023/08/22 05:19:05;;;;;;;13.45;2.40;;;;;;;15.63;100.00;101272.59;4982002;28;20565;-56
2023/08/22 05:21:32;;;;;;;10.07;2.55;;;;;;;15.77;100.00;101268.28;4980912;28;20436;-56
2023/08/22 05:23:59;;;;;;;8.98;2.72;;;;;;;16.07;100.00;101266.50;4982572;28;20042;-56
2023/08/22 05:26:25;;;;;;;21.20;5.20;;;;;;;16.08;100.00;101260.91;4981903;28;20057;-56
2023/08/22 05:28:52;;;;;;;12.68;2.75;;;;;;;15.88;100.00;101260.59;4983982;28;20047;-57
2023/08/22 05:31:23;;;;;;;9.85;3.45;;;;;;;16.02;100.00;101272.47;4982422;28;20054;-57
2023/08/22 05:33:51;;;;;;;9.45;2.63;;;;;;;16.09;100.00;101275.25;4983187;28;20043;-58
2023/08/22 05:36:17;;;;;;;14.77;4.20;;;;;;;16.06;100.00;101271.09;4982066;28;20047;-58
2023/08/22 05:38:45;;;;;;;15.20;2.60;;;;;;;16.00;100.00;101277.22;4982799;28;20050;-56
2023/08/22 05:41:13;;;;;;;10.50;2.97;;;;;;;16.13;100.00;101287.44;4983129;28;20573;-56
2023/08/22 05:43:39;;;;;;;10.50;2.58;;;;;;;16.35;100.00;101278.41;4981614;28;20047;-56
2023/08/22 05:46:07;;;;;;;10.50;2.47;;;;;;;16.45;100.00;101272.72;4982575;28;20058;-57
2023/08/22 05:48:33;;;;;;;15.93;2.80;;;;;;;16.33;100.00;101280.47;4983096;28;20105;-55
2023/08/22 05:51:02;;;;;;;10.93;2.88;;;;;;;16.28;100.00;101280.16;4983791;28;20101;-55
2023/08/22 05:53:29;;;;;;;7.53;2.50;;;;;;;16.28;100.00;101282.88;4982508;28;20050;-56
2023/08/22 05:55:56;;;;;;;8.98;2.15;;;;;;;16.31;100.00;101278.97;4982831;28;20047;-55
2023/08/22 05:58:23;;;;;;;5.97;2.33;;;;;;;16.42;100.00;101290.19;4982886;28;20487;-55
2023/08/22 06:00:49;;;;;;;11.98;2.80;;;;;;;16.47;100.00;101286.94;4981839;28;20046;-56
2023/08/22 06:03:18;;;;;;;10.05;2.60;;;;;;;16.47;100.00;101289.63;4982808;28;20043;-56
2023/08/22 06:05:44;;;;;;;13.80;2.53;;;;;;;16.32;100.00;101273.34;4965010;28;20054;-55
2023/08/22 06:08:11;;;;;;;12.07;2.60;;;;;;;16.33;100.00;101280.47;4984077;28;20065;-56
2023/08/22 06:10:38;;;;;;;15.02;3.65;;;;;;;16.57;100.00;101297.50;4982541;28;20113;-55
2023/08/22 06:13:04;;;;;;;11.27;2.40;;;;;;;16.60;100.00;101297.13;4982315;28;20054;-55
2023/08/22 06:15:31;;;;;;;12.23;2.47;;;;;;;16.39;100.00;101290.53;4982298;28;20042;-56
2023/08/22 06:17:58;;;;;;;9.98;2.83;;;;;;;16.31;100.00;101285.22;4982931;28;20047;-55
2023/08/22 06:20:26;;;;;;;9.88;2.15;;;;;;;16.30;100.00;101294.38;4980925;28;20051;-56
2023/08/22 06:22:52;;;;;;;10.15;2.22;;;;;;;16.29;100.00;101299.94;4982073;28;20051;-56
2023/08/22 06:25:18;;;;;;;8.38;1.90;;;;;;;16.35;100.00;101291.09;4982910;28;20098;-57
2023/08/22 06:27:45;;;;;;;11.65;2.13;;;;;;;16.43;100.00;101286.44;4983019;28;20043;-56
2023/08/22 06:30:12;;;;;;;8.70;2.55;;;;;;;16.49;100.00;101284.84;4982552;28;20070;-55
2023/08/22 06:32:38;;;;;;;11.80;2.63;;;;;;;16.59;100.00;101284.63;4982813;28;20043;-56
2023/08/22 06:35:07;;;;;;;11.30;2.42;;;;;;;16.62;100.00;101282.38;4983634;28;20050;-56
2023/08/22 06:37:33;;;;;;;15.95;2.10;;;;;;;16.82;100.00;101279.94;4982800;28;20055;-56
2023/08/22 06:40:00;;;;;;;13.55;2.33;;;;;;;16.75;100.00;101278.16;4982580;28;20645;-56
2023/08/22 06:42:27;;;;;;;8.38;2.28;;;;;;;16.80;100.00;101267.63;4982016;28;20062;-57
2023/08/22 06:44:53;;;;;;;18.60;2.40;;;;;;;16.98;100.00;101267.22;4980101;28;20043;-56
2023/08/22 06:47:23;;;;;;;9.93;2.38;;;;;;;16.98;100.00;101268.06;4981922;28;20043;-56
2023/08/22 06:49:50;;;;;;;10.05;2.33;;;;;;;17.19;100.00;101267.25;4982288;28;20061;-58
2023/08/22 06:52:18;;;;;;;13.32;2.17;;;;;;;17.34;100.00;101270.81;4982058;28;20047;-57
2023/08/22 06:54:45;;;;;;;7.88;1.98;;;;;;;17.41;100.00;101265.47;4981717;28;20046;-56
2023/08/22 06:57:12;;;;;;;8.65;1.80;;;;;;;17.32;100.00;101274.72;4982499;28;20129;-57
2023/08/22 06:59:38;;;;;;;11.15;2.15;;;;;;;17.69;100.00;101281.00;4982209;28;20043;-56
2023/08/22 07:02:06;;;;;;;11.18;2.08;;;;;;;17.67;100.00;101283.03;4981543;28;20101;-55
2023/08/22 07:04:32;;;;;;;10.55;1.98;;;;;;;17.76;100.00;101290.03;4980171;28;20051;-60
2023/08/22 07:07:00;;;;;;;11.25;1.83;;;;;;;17.71;100.00;101268.88;4981587;28;20049;-59
2023/08/22 07:09:27;;;;;;;6.68;2.15;;;;;;;17.80;100.00;101266.91;4981161;28;20113;-59
2023/08/22 07:11:53;;;;;;;9.48;2.20;;;;;;;17.80;100.00;101272.31;4961181;28;20396;-57
2023/08/22 07:14:20;;;;;;;8.15;2.00;;;;;;;18.11;100.00;101280.13;4982190;28;20051;-59
2023/08/22 07:16:46;;;;;;;6.72;1.95;;;;;;;18.08;100.00;101269.63;4981398;28;20070;-62
2023/08/22 07:19:14;;;;;;;12.25;1.88;;;;;;;18.14;100.00;101268.03;4982365;28;20051;-59
2023/08/22 07:21:58;;;;;;;7.68;2.00;;;;;;;18.48;100.00;101264.50;4980283;28;20053;-58
2023/08/22 07:24:27;;;;;;;13.90;2.58;;;;;;;18.39;100.00;101272.00;4978740;28;20106;-58
2023/08/22 07:26:53;;;;;;;12.00;2.30;;;;;;;18.71;100.00;101266.97;4980415;28;20074;-57
2023/08/22 07:29:20;;;;;;;7.03;1.80;;;;;;;18.24;100.00;101269.38;4977972;28;20074;-57
2023/08/22 07:31:47;;;;;;;10.10;2.17;;;;;;;18.14;100.00;101271.56;4979482;28;20051;-60
2023/08/22 07:34:14;;;;;;;5.30;1.77;;;;;;;17.91;100.00;101270.97;4982007;28;20425;-58
2023/08/22 07:36:40;;;;;;;10.95;1.92;;;;;;;17.80;100.00;101273.16;4978394;28;20050;-58
2023/08/22 07:39:07;;;;;;;11.38;2.03;;;;;;;17.74;100.00;101268.50;4980435;28;20475;-58
2023/08/22 07:41:33;;;;;;;4.72;1.77;;;;;;;17.51;100.00;101266.00;4980659;28;20054;-58
2023/08/22 07:44:00;;;;;;;10.40;1.85;;;;;;;17.64;100.00;101249.00;4980425;28;20109;-57
2023/08/22 07:46:26;;;;;;;6.82;1.60;;;;;;;17.75;100.00;101253.06;4981135;28;20051;-58
2023/08/22 07:48:54;;;;;;;11.70;1.92;;;;;;;18.00;100.00;101259.78;4980510;28;20097;-59
2023/08/22 07:51:20;;;;;;;5.88;1.45;;;;;;;18.18;100.00;101247.63;4979716;28;20051;-56
2023/08/22 07:53:47;;;;;;;5.43;1.80;;;;;;;18.50;100.00;101238.81;4980515;28;20074;-62
2023/08/22 07:56:13;;;;;;;9.75;2.08;;;;;;;18.58;100.00;101228.84;4981063;28;20050;-59
2023/08/22 07:58:40;;;;;;;14.50;1.80;;;;;;;18.86;100.00;101235.06;4980226;28;20101;-57
2023/08/22 08:01:06;;;;;;;6.53;1.95;;;;;;;19.09;100.00;101240.19;4979467;28;20047;-58
2023/08/22 08:03:37;;;;;;;8.80;1.77;;;;;;;18.87;100.00;101242.16;4980124;28;20080;-58
2023/08/22 08:06:07;;;;;;;8.80;2.03;;;;;;;18.71;100.00;101246.03;4978935;28;20059;-57
2023/08/22 08:08:34;;;;;;;6.20;1.80;;;;;;;19.11;100.00;101253.59;4978884;28;20051;-59
2023/08/22 08:11:01;;;;;;;10.13;2.05;;;;;;;18.87;100.00;101250.31;4963074;28;20059;-56
2023/08/22 08:13:28;;;;;;;10.18;2.53;;;;;;;18.47;100.00;101249.25;4979700;28;20051;-58
2023/08/22 08:15:54;;;;;;;7.38;1.50;;;;;;;18.51;100.00;101253.25;4963017;28;20062;-59
2023/08/22 08:18:32;;;;;;;9.00;2.03;;;;;;;18.52;100.00;101252.22;4978557;28;20106;-56
2023/08/22 08:20:59;;;;;;;7.68;1.65;;;;;;;18.46;100.00;101253.03;4978537;28;20047;-58
2023/08/22 08:23:26;;;;;;;7.35;1.70;;;;;;;18.79;100.00;101261.34;4978158;28;20054;-59
2023/08/22 08:25:53;;;;;;;9.23;2.05;;;;;;;18.76;100.00;101264.50;4979540;28;20042;-60
2023/08/22 08:28:19;;;;;;;14.85;2.63;;;;;;;18.53;100.00;101264.78;4962340;28;20396;-57
2023/08/22 08:30:46;;;;;;;14.02;2.45;;;;;;;18.42;100.00;101255.28;4979343;28;20062;-59
2023/08/22 08:33:12;;;;;;;11.07;2.38;;;;;;;18.62;100.00;101260.88;4979955;28;20543;-59
2023/08/22 08:35:39;;;;;;;9.20;2.53;;;;;;;19.01;100.00;101257.50;4980602;28;20114;-60
2023/08/22 08:38:06;;;;;;;11.55;2.03;;;;;;;19.12;100.00;101249.81;4979430;28;20498;-59
2023/08/22 08:40:36;;;;;;;9.05;2.00;;;;;;;18.55;100.00;101243.69;4976664;28;20101;-58
2023/08/22 08:43:03;;;;;;;6.90;1.88;;;;;;;18.58;100.00;101245.97;4981229;28;20074;-58
2023/08/22 08:45:33;;;;;;;11.88;2.20;;;;;;;18.71;100.00;101237.06;4982912;28;20058;-58
2023/08/22 08:48:01;;;;;;;8.60;1.88;;;;;;;19.15;100.00;101230.38;4984214;28;20049;-59
2023/08/22 08:50:30;;;;;;;9.90;2.10;;;;;;;19.39;100.00;101224.34;4982009;28;20443;-57
2023/08/22 08:52:58;;;;;;;8.43;1.98;;;;;;;19.70;100.00;101225.69;4983262;28;20042;-59
2023/08/22 08:55:28;;;;;;;9.55;1.80;;;;;;;19.81;100.00;101227.78;4982534;28;20108;-58
2023/08/22 08:57:58;;;;;;;9.48;2.20;;;;;;;19.15;100.00;101235.81;4983572;28;20073;-56
2023/08/22 09:00:24;;;;;;;5.80;1.67;;;;;;;19.24;100.00;101243.59;4981876;28;20431;-59
2023/08/22 09:02:51;;;;;;;8.45;2.00;;;;;;;19.13;100.00;101229.72;4984028;28;20058;-59
2023/08/22 09:05:21;;;;;;;10.95;2.20;;;;;;;18.80;100.00;101235.84;4983233;28;20057;-60
2023/08/22 09:07:48;;;;;;;4.22;1.63;;;;;;;19.07;100.00;101225.97;4983161;28;20046;-60
2023/08/22 09:10:31;;;;;;;7.03;1.70;;;;;;;18.70;100.00;101230.78;4983708;28;20454;-59
2023/08/22 09:13:02;;;;;;;9.90;1.90;;;;;;;18.64;100.00;101234.31;4982041;28;20430;-57
2023/08/22 09:15:30;;;;;;;8.60;2.28;;;;;;;18.90;100.00;101228.16;4983849;28;20082;-58
2023/08/22 09:17:57;;;;;;;13.20;1.90;;;;;;;19.25;100.00;101226.22;4966843;28;20051;-58
2023/08/22 09:20:24;;;;;;;6.75;1.95;;;;;;;19.36;100.00;101223.94;4983750;28;20046;-60
2023/08/22 09:22:51;;;;;;;9.52;1.98;;;;;;;19.55;100.00;101216.84;4983515;28;20422;-58
2023/08/22 09:25:18;;;;;;;9.50;2.10;;;;;;;19.31;100.00;101215.53;4983341;28;20101;-60
2023/08/22 09:27:50;;;;;;;9.82;2.03;;;;;;;19.20;100.00;101208.81;4983931;28;20105;-60
2023/08/22 09:30:20;;;;;;;;;;;;;;;19.78;100.00;101213.75;4983211;28;20046;-57
2023/08/22 09:32:58;;;;;;;8.18;1.90;;;;;;;19.62;100.00;101204.06;4983154;28;19922;-61
2023/08/22 09:35:37;;;;;;;13.98;2.20;;;;;;;21.16;100.00;101203.56;4982747;28;20052;-57
2023/08/22 09:38:09;;;;;;;8.98;1.88;;;;;;;21.24;100.00;101207.91;4982370;28;20070;-58
2023/08/22 09:40:48;;;;;;;6.45;1.98;;;;;;;21.20;100.00;101203.97;4982582;28;20391;-58
2023/08/22 09:43:16;;;;;;;9.30;2.38;;;;;;;22.03;97.04;101203.75;4982765;28;20043;-58
2023/08/22 09:45:43;;;;;;;4.38;2.63;;;;;;;22.76;90.21;101194.78;4982132;28;20454;-58
2023/08/22 09:48:19;;;;;;;10.15;1.73;;;;;;;23.85;76.43;101181.81;4980544;28;20058;-58
2023/08/22 09:50:51;;;;;;;11.15;2.42;;;;;;;22.88;78.64;101189.34;4981965;28;20046;-59
2023/08/22 09:53:20;;;;;;;7.03;2.05;;;;;;;22.70;78.98;101195.69;4982331;28;20442;-58
2023/08/22 09:55:47;;;;;;;7.03;1.70;;;;;;;22.62;81.75;101196.84;4981174;28;20455;-58
2023/08/22 09:58:15;;;;;;;6.65;1.92;;;;;;;21.70;90.09;101188.47;4981975;28;20050;-58
2023/08/22 10:00:44;;;;;;;6.20;1.92;;;;;;;22.38;87.12;101187.63;4980181;28;20053;-59
2023/08/22 10:03:13;;;;;;;9.98;2.13;;;;;;;22.24;91.34;101184.19;4981438;28;20042;-59
2023/08/22 10:05:41;;;;;;;10.13;2.40;;;;;;;21.66;88.23;101189.97;4971269;28;20562;-60
2023/08/22 10:08:07;;;;;;;6.32;2.10;;;;;;;20.77;91.52;101182.75;4981493;28;20058;-58
2023/08/22 10:10:35;;;;;;;8.68;2.28;;;;;;;20.66;93.59;101184.25;4980784;28;20046;-59
2023/08/22 10:13:03;;;;;;;11.85;2.75;;;;;;;20.90;92.13;101177.22;4981965;28;20427;-58
2023/08/22 10:15:32;;;;;;;10.73;2.60;;;;;;;20.98;91.32;101178.88;4980730;28;20074;-59
2023/08/22 10:17:59;;;;;;;13.02;2.42;;;;;;;21.11;95.24;101179.66;4980644;28;20046;-58
2023/08/22 10:20:25;;;;;;;6.80;2.38;;;;;;;21.49;86.87;101180.66;4981210;28;20142;-59
2023/08/22 10:22:52;;;;;;;8.95;2.20;;;;;;;21.64;84.38;101183.91;4980985;28;20050;-60
2023/08/22 10:25:19;;;;;;;10.07;2.28;;;;;;;21.21;83.66;101184.63;4980255;28;20054;-60
2023/08/22 10:27:47;;;;;;;10.43;2.22;;;;;;;20.98;87.96;101178.88;4981920;28;20051;-59
2023/08/22 10:30:14;;;;;;;5.22;2.15;;;;;;;21.55;88.52;101174.31;4981383;28;20382;-60
2023/08/22 10:32:41;;;;;;;7.57;2.08;;;;;;;21.44;85.49;101175.88;4979313;28;20043;-61
2023/08/22 10:35:09;;;;;;;7.32;2.47;;;;;;;21.46;89.56;101178.34;4979642;28;20077;-60
2023/08/22 10:37:46;;;;;;;11.68;2.38;;;;;;;21.57;77.72;101178.50;4980731;28;20135;-58
2023/08/22 10:40:27;;;;;;;7.53;2.00;;;;;;;21.19;84.63;101186.75;4982715;28;20039;-61
2023/08/22 10:43:09;;;;;;;5.22;1.92;;;;;;;20.49;86.98;101185.78;4980325;28;20446;-60
2023/08/22 10:45:48;;;;;;;6.72;1.70;;;;;;;20.74;88.95;101192.19;4981482;28;20059;-59
2023/08/22 10:48:17;;;;;;;6.97;2.10;;;;;;;20.50;84.10;101182.03;4981222;28;20492;-60
2023/08/22 10:50:45;;;;;;;5.53;2.25;;;;;;;20.60;91.99;101176.97;4980568;28;20053;-60
2023/08/22 10:53:23;;;;;;;12.82;2.17;;;;;;;20.81;92.07;101176.66;4977724;28;20054;-59
2023/08/22 10:55:51;;;;;;;6.40;1.98;;;;;;;20.68;81.77;101172.09;4959885;28;20078;-61
2023/08/22 10:58:39;;;;;;;13.45;2.85;;;;;;;20.78;85.04;101174.34;4960557;28;20505;-62
2023/08/22 11:01:10;;;;;;;8.45;2.00;;;;;;;20.97;76.93;101174.47;4977350;28;20042;-60
2023/08/22 11:03:37;;;;;;;10.73;2.50;;;;;;;20.70;84.78;101187.38;4978657;28;20392;-60
2023/08/22 11:06:12;;;;;;;10.65;2.40;;;;;;;20.87;86.53;101170.31;4979421;28;20073;-59
2023/08/22 11:08:40;;;;;;;13.85;2.60;;;;;;;21.18;90.57;101181.50;4979839;28;20055;-59
2023/08/22 11:11:07;;;;;;;12.00;2.25;;;;;;;21.36;90.62;101166.06;4978789;28;20101;-60
2023/08/22 11:13:36;;;;;;;6.80;2.10;;;;;;;21.30;83.33;101172.41;4977822;28;20050;-61
2023/08/22 11:16:08;;;;;;;7.18;2.08;;;;;;;21.49;88.88;101167.00;4979611;28;20042;-59
2023/08/22 11:18:34;;;;;;;;;;;;;;;21.55;91.40;101179.78;4979319;28;20054;-59